sensor_id;sensor_type;location;lat;lon;timestamp;P1;durP1;ratioP1;P2;durP2;ratioP2
22711;SDS011;11523;50.390;8.072;2022-12-29T03:36:54;2.70;;;1.80;;
22711;SDS011;11523;50.390;8.072;2022-12-29T03:41:56;2.70;;;1.92;;
22711;SDS011;11523;50.390;8.072;2022-12-29T03:44:31;3.13;;;1.90;;
22711;SDS011;11523;50.390;8.072;2022-12-29T03:46:57;1.83;;;1.70;;
22711;SDS011;11523;50.390;8.072;2022-12-29T03:49:23;1.67;;;1.35;;
22711;SDS011;11523;50.390;8.072;2022-12-29T03:51:49;2.33;;;1.50;;
22711;SDS011;11523;50.390;8.072;2022-12-29T03:54:14;2.72;;;1.88;;
22711;SDS011;11523;50.390;8.072;2022-12-29T03:56:40;1.92;;;1.30;;
22711;SDS011;11523;50.390;8.072;2022-12-29T03:59:06;1.40;;;1.08;;
22711;SDS011;11523;50.390;8.072;2022-12-29T04:01:33;1.67;;;1.10;;
22711;SDS011;11523;50.390;8.072;2022-12-29T04:03:59;1.45;;;1.02;;
22711;SDS011;11523;50.390;8.072;2022-12-29T04:06:25;1.52;;;1.35;;
22711;SDS011;11523;50.390;8.072;2022-12-29T04:08:51;1.92;;;1.38;;
22711;SDS011;11523;50.390;8.072;2022-12-29T04:11:17;2.40;;;1.38;;
22711;SDS011;11523;50.390;8.072;2022-12-29T04:13:43;1.52;;;1.35;;
22711;SDS011;11523;50.390;8.072;2022-12-29T04:16:09;1.90;;;1.40;;
22711;SDS011;11523;50.390;8.072;2022-12-29T04:18:35;1.40;;;1.20;;
22711;SDS011;11523;50.390;8.072;2022-12-29T04:21:01;1.20;;;1.10;;
22711;SDS011;11523;50.390;8.072;2022-12-29T04:23:30;1.58;;;1.40;;
22711;SDS011;11523;50.390;8.072;2022-12-29T04:25:57;2.85;;;1.40;;
22711;SDS011;11523;50.390;8.072;2022-12-29T04:28:24;2.17;;;1.20;;
22711;SDS011;11523;50.390;8.072;2022-12-29T04:30:50;2.97;;;1.50;;
22711;SDS011;11523;50.390;8.072;2022-12-29T04:33:15;1.20;;;1.02;;
22711;SDS011;11523;50.390;8.072;2022-12-29T04:35:42;1.58;;;1.20;;
22711;SDS011;11523;50.390;8.072;2022-12-29T04:38:08;1.67;;;1.58;;
22711;SDS011;11523;50.390;8.072;2022-12-29T04:40:34;2.60;;;1.67;;
22711;SDS011;11523;50.390;8.072;2022-12-29T04:43:00;2.47;;;1.45;;
22711;SDS011;11523;50.390;8.072;2022-12-29T04:45:26;2.00;;;1.15;;
22711;SDS011;11523;50.390;8.072;2022-12-29T04:47:52;1.95;;;1.20;;
22711;SDS011;11523;50.390;8.072;2022-12-29T04:50:18;2.28;;;1.55;;
22711;SDS011;11523;50.390;8.072;2022-12-29T04:52:44;2.17;;;1.50;;
22711;SDS011;11523;50.390;8.072;2022-12-29T04:55:10;1.95;;;1.75;;
22711;SDS011;11523;50.390;8.072;2022-12-29T04:57:36;2.88;;;1.70;;
22711;SDS011;11523;50.390;8.072;2022-12-29T05:00:02;3.45;;;1.60;;
22711;SDS011;11523;50.390;8.072;2022-12-29T05:02:29;2.65;;;1.60;;
22711;SDS011;11523;50.390;8.072;2022-12-29T05:04:55;5.10;;;1.92;;
22711;SDS011;11523;50.390;8.072;2022-12-29T05:07:20;4.80;;;1.50;;
22711;SDS011;11523;50.390;8.072;2022-12-29T05:09:46;2.78;;;1.88;;
22711;SDS011;11523;50.390;8.072;2022-12-29T05:12:12;1.92;;;1.58;;
22711;SDS011;11523;50.390;8.072;2022-12-29T05:14:38;2.25;;;1.52;;
22711;SDS011;11523;50.390;8.072;2022-12-29T05:17:04;3.55;;;2.13;;
22711;SDS011;11523;50.390;8.072;2022-12-29T05:19:30;3.00;;;1.95;;
22711;SDS011;11523;50.390;8.072;2022-12-29T05:21:56;3.67;;;2.20;;
22711;SDS011;11523;50.390;8.072;2022-12-29T05:24:22;6.38;;;2.40;;
22711;SDS011;11523;50.390;8.072;2022-12-29T05:26:48;5.80;;;1.95;;
22711;SDS011;11523;50.390;8.072;2022-12-29T05:29:14;2.80;;;1.80;;
22711;SDS011;11523;50.390;8.072;2022-12-29T05:31:40;2.20;;;1.60;;
22711;SDS011;11523;50.390;8.072;2022-12-29T05:34:06;1.70;;;1.23;;
22711;SDS011;11523;50.390;8.072;2022-12-29T05:36:32;1.98;;;1.45;;
22711;SDS011;11523;50.390;8.072;2022-12-29T05:38:58;3.65;;;2.03;;
22711;SDS011;11523;50.390;8.072;2022-12-29T05:41:24;3.05;;;1.77;;
22711;SDS011;11523;50.390;8.072;2022-12-29T05:43:50;2.58;;;1.52;;
22711;SDS011;11523;50.390;8.072;2022-12-29T05:46:16;2.20;;;1.70;;
22711;SDS011;11523;50.390;8.072;2022-12-29T05:48:42;3.50;;;2.00;;
22711;SDS011;11523;50.390;8.072;2022-12-29T05:51:08;2.20;;;1.45;;
22711;SDS011;11523;50.390;8.072;2022-12-29T05:53:34;2.00;;;1.25;;
22711;SDS011;11523;50.390;8.072;2022-12-29T05:56:00;1.65;;;1.55;;
22711;SDS011;11523;50.390;8.072;2022-12-29T05:58:26;2.65;;;1.60;;
22711;SDS011;11523;50.390;8.072;2022-12-29T06:00:52;3.45;;;2.00;;
22711;SDS011;11523;50.390;8.072;2022-12-29T06:03:18;2.25;;;1.38;;
22711;SDS011;11523;50.390;8.072;2022-12-29T06:05:47;2.25;;;1.63;;
22711;SDS011;11523;50.390;8.072;2022-12-29T06:08:13;2.03;;;1.60;;
22711;SDS011;11523;50.390;8.072;2022-12-29T06:10:38;4.63;;;1.25;;
22711;SDS011;11523;50.390;8.072;2022-12-29T06:13:04;2.10;;;1.73;;
22711;SDS011;11523;50.390;8.072;2022-12-29T06:15:31;2.28;;;1.60;;
22711;SDS011;11523;50.390;8.072;2022-12-29T06:17:57;2.00;;;1.70;;
22711;SDS011;11523;50.390;8.072;2022-12-29T06:20:23;2.28;;;1.80;;
22711;SDS011;11523;50.390;8.072;2022-12-29T06:22:49;2.17;;;1.67;;
22711;SDS011;11523;50.390;8.072;2022-12-29T06:25:15;5.15;;;1.60;;
22711;SDS011;11523;50.390;8.072;2022-12-29T06:27:41;2.83;;;1.83;;
22711;SDS011;11523;50.390;8.072;2022-12-29T06:30:07;3.10;;;1.77;;
22711;SDS011;11523;50.390;8.072;2022-12-29T06:32:34;3.08;;;1.60;;
22711;SDS011;11523;50.390;8.072;2022-12-29T06:35:00;1.92;;;1.70;;
22711;SDS011;11523;50.390;8.072;2022-12-29T06:37:26;1.90;;;1.70;;
22711;SDS011;11523;50.390;8.072;2022-12-29T06:39:52;2.95;;;1.80;;
22711;SDS011;11523;50.390;8.072;2022-12-29T06:42:18;4.40;;;1.80;;
22711;SDS011;11523;50.390;8.072;2022-12-29T06:44:44;1.60;;;1.50;;
22711;SDS011;11523;50.390;8.072;2022-12-29T06:47:10;1.85;;;1.63;;
22711;SDS011;11523;50.390;8.072;2022-12-29T06:49:36;2.28;;;1.80;;
22711;SDS011;11523;50.390;8.072;2022-12-29T06:52:02;2.33;;;1.65;;
22711;SDS011;11523;50.390;8.072;2022-12-29T06:54:29;5.03;;;2.45;;
22711;SDS011;11523;50.390;8.072;2022-12-29T06:56:55;2.45;;;1.77;;
22711;SDS011;11523;50.390;8.072;2022-12-29T06:59:21;2.75;;;1.60;;
22711;SDS011;11523;50.390;8.072;2022-12-29T07:01:47;2.47;;;1.77;;
22711;SDS011;11523;50.390;8.072;2022-12-29T07:04:12;1.63;;;1.52;;
22711;SDS011;11523;50.390;8.072;2022-12-29T07:06:39;2.60;;;1.67;;
22711;SDS011;11523;50.390;8.072;2022-12-29T07:09:06;2.05;;;1.75;;
22711;SDS011;11523;50.390;8.072;2022-12-29T07:11:32;2.00;;;1.63;;
22711;SDS011;11523;50.390;8.072;2022-12-29T07:13:58;3.05;;;1.50;;
22711;SDS011;11523;50.390;8.072;2022-12-29T07:16:24;1.63;;;1.40;;
22711;SDS011;11523;50.390;8.072;2022-12-29T07:18:50;1.48;;;1.30;;
22711;SDS011;11523;50.390;8.072;2022-12-29T07:21:16;1.83;;;1.30;;
22711;SDS011;11523;50.390;8.072;2022-12-29T07:23:42;1.98;;;1.40;;
22711;SDS011;11523;50.390;8.072;2022-12-29T07:26:09;2.22;;;1.50;;
22711;SDS011;11523;50.390;8.072;2022-12-29T07:28:35;2.38;;;1.70;;
22711;SDS011;11523;50.390;8.072;2022-12-29T07:31:03;1.42;;;1.10;;
22711;SDS011;11523;50.390;8.072;2022-12-29T07:33:29;1.33;;;1.23;;
22711;SDS011;11523;50.390;8.072;2022-12-29T07:35:55;0.98;;;0.88;;
22711;SDS011;11523;50.390;8.072;2022-12-29T07:38:21;1.58;;;1.35;;
22711;SDS011;11523;50.390;8.072;2022-12-29T07:40:47;1.40;;;1.30;;
22711;SDS011;11523;50.390;8.072;2022-12-29T07:43:13;1.00;;;0.70;;
22711;SDS011;11523;50.390;8.072;2022-12-29T07:45:39;1.13;;;1.00;;
22711;SDS011;11523;50.390;8.072;2022-12-29T07:48:05;2.25;;;1.20;;
22711;SDS011;11523;50.390;8.072;2022-12-29T07:50:34;1.10;;;1.02;;
22711;SDS011;11523;50.390;8.072;2022-12-29T07:53:00;1.67;;;1.50;;
22711;SDS011;11523;50.390;8.072;2022-12-29T07:55:26;1.40;;;1.10;;
22711;SDS011;11523;50.390;8.072;2022-12-29T07:57:53;2.38;;;1.38;;
22711;SDS011;11523;50.390;8.072;2022-12-29T08:00:19;2.47;;;1.40;;
22711;SDS011;11523;50.390;8.072;2022-12-29T08:02:45;1.33;;;1.00;;
22711;SDS011;11523;50.390;8.072;2022-12-29T08:05:11;2.17;;;1.50;;
22711;SDS011;11523;50.390;8.072;2022-12-29T08:07:37;1.67;;;1.50;;
22711;SDS011;11523;50.390;8.072;2022-12-29T08:10:03;2.15;;;1.80;;
22711;SDS011;11523;50.390;8.072;2022-12-29T08:12:29;2.63;;;1.33;;
22711;SDS011;11523;50.390;8.072;2022-12-29T08:14:55;3.75;;;1.40;;
22711;SDS011;11523;50.390;8.072;2022-12-29T08:17:21;1.83;;;1.30;;
22711;SDS011;11523;50.390;8.072;2022-12-29T08:19:47;0.75;;;0.75;;
22711;SDS011;11523;50.390;8.072;2022-12-29T08:22:13;1.45;;;1.05;;
22711;SDS011;11523;50.390;8.072;2022-12-29T08:24:40;0.80;;;0.73;;
22711;SDS011;11523;50.390;8.072;2022-12-29T08:27:05;1.70;;;0.90;;
22711;SDS011;11523;50.390;8.072;2022-12-29T08:29:31;1.35;;;1.05;;
22711;SDS011;11523;50.390;8.072;2022-12-29T08:31:57;1.25;;;0.82;;
22711;SDS011;11523;50.390;8.072;2022-12-29T08:34:23;0.73;;;0.73;;
22711;SDS011;11523;50.390;8.072;2022-12-29T08:36:49;1.05;;;0.82;;
22711;SDS011;11523;50.390;8.072;2022-12-29T08:39:15;2.00;;;0.90;;
22711;SDS011;11523;50.390;8.072;2022-12-29T08:41:41;0.80;;;0.77;;
22711;SDS011;11523;50.390;8.072;2022-12-29T08:44:07;0.90;;;0.65;;
22711;SDS011;11523;50.390;8.072;2022-12-29T08:46:33;2.10;;;0.80;;
22711;SDS011;11523;50.390;8.072;2022-12-29T08:48:59;1.90;;;1.00;;
22711;SDS011;11523;50.390;8.072;2022-12-29T08:51:25;2.65;;;1.23;;
22711;SDS011;11523;50.390;8.072;2022-12-29T08:53:51;1.00;;;0.85;;
22711;SDS011;11523;50.390;8.072;2022-12-29T08:56:17;1.90;;;0.82;;
22711;SDS011;11523;50.390;8.072;2022-12-29T08:58:43;1.10;;;1.00;;
22711;SDS011;11523;50.390;8.072;2022-12-29T09:01:09;3.33;;;1.42;;
22711;SDS011;11523;50.390;8.072;2022-12-29T09:03:35;1.08;;;0.82;;
22711;SDS011;11523;50.390;8.072;2022-12-29T09:06:01;1.85;;;0.80;;
22711;SDS011;11523;50.390;8.072;2022-12-29T09:08:27;2.08;;;0.80;;
22711;SDS011;11523;50.390;8.072;2022-12-29T09:10:53;0.80;;;0.80;;
22711;SDS011;11523;50.390;8.072;2022-12-29T09:13:19;2.60;;;1.00;;
22711;SDS011;11523;50.390;8.072;2022-12-29T09:15:45;2.50;;;1.35;;
22711;SDS011;11523;50.390;8.072;2022-12-29T09:18:11;1.40;;;1.30;;
22711;SDS011;11523;50.390;8.072;2022-12-29T09:20:37;4.20;;;1.23;;
22711;SDS011;11523;50.390;8.072;2022-12-29T09:23:03;2.47;;;1.25;;
22711;SDS011;11523;50.390;8.072;2022-12-29T09:25:37;3.03;;;1.30;;
22711;SDS011;11523;50.390;8.072;2022-12-29T09:28:03;1.92;;;1.20;;
22711;SDS011;11523;50.390;8.072;2022-12-29T09:30:32;1.55;;;1.20;;
22711;SDS011;11523;50.390;8.072;2022-12-29T09:32:58;1.80;;;1.20;;
22711;SDS011;11523;50.390;8.072;2022-12-29T09:35:24;2.90;;;1.40;;
22711;SDS011;11523;50.390;8.072;2022-12-29T09:37:50;2.15;;;1.27;;
22711;SDS011;11523;50.390;8.072;2022-12-29T09:40:27;1.33;;;0.90;;
22711;SDS011;11523;50.390;8.072;2022-12-29T09:45:34;1.10;;;1.00;;
22711;SDS011;11523;50.390;8.072;2022-12-29T09:48:03;1.10;;;1.00;;
22711;SDS011;11523;50.390;8.072;2022-12-29T09:50:30;0.98;;;0.60;;
22711;SDS011;11523;50.390;8.072;2022-12-29T09:55:31;1.15;;;1.02;;
22711;SDS011;11523;50.390;8.072;2022-12-29T09:58:00;1.23;;;1.13;;
22711;SDS011;11523;50.390;8.072;2022-12-29T10:00:32;1.88;;;1.17;;
22711;SDS011;11523;50.390;8.072;2022-12-29T10:03:16;2.83;;;1.20;;
22711;SDS011;11523;50.390;8.072;2022-12-29T10:05:48;1.50;;;0.90;;
22711;SDS011;11523;50.390;8.072;2022-12-29T10:08:19;1.85;;;1.00;;
22711;SDS011;11523;50.390;8.072;2022-12-29T10:13:21;1.50;;;1.20;;
22711;SDS011;11523;50.390;8.072;2022-12-29T10:20:49;2.55;;;1.50;;
22711;SDS011;11523;50.390;8.072;2022-12-29T10:25:46;1.88;;;1.17;;
22711;SDS011;11523;50.390;8.072;2022-12-29T10:28:23;1.15;;;0.80;;
22711;SDS011;11523;50.390;8.072;2022-12-29T10:30:49;2.80;;;1.17;;
22711;SDS011;11523;50.390;8.072;2022-12-29T10:33:21;1.65;;;1.05;;
22711;SDS011;11523;50.390;8.072;2022-12-29T10:35:48;1.98;;;1.00;;
22711;SDS011;11523;50.390;8.072;2022-12-29T10:38:19;3.05;;;1.48;;
22711;SDS011;11523;50.390;8.072;2022-12-29T10:40:49;6.20;;;1.60;;
22711;SDS011;11523;50.390;8.072;2022-12-29T10:43:20;1.92;;;1.08;;
22711;SDS011;11523;50.390;8.072;2022-12-29T10:45:47;1.80;;;1.00;;
22711;SDS011;11523;50.390;8.072;2022-12-29T10:48:21;2.42;;;0.98;;
22711;SDS011;11523;50.390;8.072;2022-12-29T10:50:48;1.95;;;1.08;;
22711;SDS011;11523;50.390;8.072;2022-12-29T10:53:17;2.35;;;1.23;;
22711;SDS011;11523;50.390;8.072;2022-12-29T10:55:44;2.35;;;1.02;;
22711;SDS011;11523;50.390;8.072;2022-12-29T10:58:12;2.53;;;1.30;;
22711;SDS011;11523;50.390;8.072;2022-12-29T11:00:39;1.83;;;1.17;;
22711;SDS011;11523;50.390;8.072;2022-12-29T11:05:52;2.30;;;1.30;;
22711;SDS011;11523;50.390;8.072;2022-12-29T11:08:20;2.92;;;1.27;;
22711;SDS011;11523;50.390;8.072;2022-12-29T11:10:48;1.58;;;1.20;;
22711;SDS011;11523;50.390;8.072;2022-12-29T11:13:26;2.67;;;1.05;;
22711;SDS011;11523;50.390;8.072;2022-12-29T11:15:52;1.85;;;1.10;;
22711;SDS011;11523;50.390;8.072;2022-12-29T11:20:58;3.58;;;1.10;;
22711;SDS011;11523;50.390;8.072;2022-12-29T11:23:35;3.85;;;1.02;;
22711;SDS011;11523;50.390;8.072;2022-12-29T11:26:20;3.05;;;1.20;;
22711;SDS011;11523;50.390;8.072;2022-12-29T11:31:49;3.83;;;1.20;;
22711;SDS011;11523;50.390;8.072;2022-12-29T11:34:19;2.67;;;0.95;;
22711;SDS011;11523;50.390;8.072;2022-12-29T11:36:46;1.88;;;1.10;;
22711;SDS011;11523;50.390;8.072;2022-12-29T11:39:23;3.72;;;1.30;;
22711;SDS011;11523;50.390;8.072;2022-12-29T11:41:52;3.47;;;1.00;;
22711;SDS011;11523;50.390;8.072;2022-12-29T11:44:19;4.47;;;1.30;;
22711;SDS011;11523;50.390;8.072;2022-12-29T11:46:46;4.63;;;1.05;;
22711;SDS011;11523;50.390;8.072;2022-12-29T11:49:13;2.63;;;0.90;;
22711;SDS011;11523;50.390;8.072;2022-12-29T11:51:45;3.95;;;1.13;;
22711;SDS011;11523;50.390;8.072;2022-12-29T11:54:17;2.78;;;1.23;;
22711;SDS011;11523;50.390;8.072;2022-12-29T11:56:45;5.55;;;1.60;;
22711;SDS011;11523;50.390;8.072;2022-12-29T11:59:21;6.22;;;1.30;;
22711;SDS011;11523;50.390;8.072;2022-12-29T12:01:49;3.05;;;1.50;;
22711;SDS011;11523;50.390;8.072;2022-12-29T12:04:19;5.07;;;1.30;;
22711;SDS011;11523;50.390;8.072;2022-12-29T12:07:33;4.53;;;1.70;;
22711;SDS011;11523;50.390;8.072;2022-12-29T12:09:47;5.10;;;1.67;;
22711;SDS011;11523;50.390;8.072;2022-12-29T12:12:24;2.53;;;1.08;;
22711;SDS011;11523;50.390;8.072;2022-12-29T12:14:57;6.50;;;1.90;;
22711;SDS011;11523;50.390;8.072;2022-12-29T12:17:37;5.97;;;1.25;;
22711;SDS011;11523;50.390;8.072;2022-12-29T12:25:43;4.05;;;1.38;;
22711;SDS011;11523;50.390;8.072;2022-12-29T12:28:13;5.03;;;1.52;;
22711;SDS011;11523;50.390;8.072;2022-12-29T12:30:44;4.28;;;0.90;;
22711;SDS011;11523;50.390;8.072;2022-12-29T12:43:31;2.33;;;0.95;;
22711;SDS011;11523;50.390;8.072;2022-12-29T12:46:13;4.38;;;0.90;;
22711;SDS011;11523;50.390;8.072;2022-12-29T12:53:59;5.07;;;1.77;;
22711;SDS011;11523;50.390;8.072;2022-12-29T12:59:15;6.20;;;1.27;;
22711;SDS011;11523;50.390;8.072;2022-12-29T13:01:54;6.75;;;1.48;;
22711;SDS011;11523;50.390;8.072;2022-12-29T13:07:12;5.45;;;1.20;;
22711;SDS011;11523;50.390;8.072;2022-12-29T13:10:27;4.75;;;1.10;;
22711;SDS011;11523;50.390;8.072;2022-12-29T13:12:38;1.77;;;0.70;;
22711;SDS011;11523;50.390;8.072;2022-12-29T13:20:20;4.72;;;1.33;;
22711;SDS011;11523;50.390;8.072;2022-12-29T13:22:54;7.00;;;1.60;;
22711;SDS011;11523;50.390;8.072;2022-12-29T13:25:25;4.13;;;1.73;;
22711;SDS011;11523;50.390;8.072;2022-12-29T13:30:41;4.20;;;1.48;;
22711;SDS011;11523;50.390;8.072;2022-12-29T13:33:19;3.05;;;1.20;;
22711;SDS011;11523;50.390;8.072;2022-12-29T13:40:49;3.55;;;1.23;;
22711;SDS011;11523;50.390;8.072;2022-12-29T13:43:16;6.43;;;1.52;;
22711;SDS011;11523;50.390;8.072;2022-12-29T13:45:43;4.20;;;1.38;;
22711;SDS011;11523;50.390;8.072;2022-12-29T13:48:15;4.10;;;1.20;;
22711;SDS011;11523;50.390;8.072;2022-12-29T13:50:42;8.48;;;1.58;;
22711;SDS011;11523;50.390;8.072;2022-12-29T13:53:19;5.78;;;1.50;;
22711;SDS011;11523;50.390;8.072;2022-12-29T13:55:52;4.82;;;1.30;;
22711;SDS011;11523;50.390;8.072;2022-12-29T13:58:31;5.53;;;1.45;;
22711;SDS011;11523;50.390;8.072;2022-12-29T14:01:12;4.80;;;1.90;;
22711;SDS011;11523;50.390;8.072;2022-12-29T14:03:50;4.57;;;1.50;;
22711;SDS011;11523;50.390;8.072;2022-12-29T14:08:45;7.40;;;1.45;;
22711;SDS011;11523;50.390;8.072;2022-12-29T14:11:12;6.55;;;1.58;;
22711;SDS011;11523;50.390;8.072;2022-12-29T14:13:40;4.00;;;1.30;;
22711;SDS011;11523;50.390;8.072;2022-12-29T14:16:24;5.43;;;1.48;;
22711;SDS011;11523;50.390;8.072;2022-12-29T14:18:50;5.43;;;1.52;;
22711;SDS011;11523;50.390;8.072;2022-12-29T14:21:19;6.47;;;1.70;;
22711;SDS011;11523;50.390;8.072;2022-12-29T14:23:48;10.13;;;1.52;;
22711;SDS011;11523;50.390;8.072;2022-12-29T14:26:16;6.03;;;2.20;;
22711;SDS011;11523;50.390;8.072;2022-12-29T14:28:47;2.83;;;1.40;;
22711;SDS011;11523;50.390;8.072;2022-12-29T14:38:53;3.28;;;1.30;;
22711;SDS011;11523;50.390;8.072;2022-12-29T14:41:30;5.30;;;1.65;;
22711;SDS011;11523;50.390;8.072;2022-12-29T14:46:41;6.93;;;2.53;;
22711;SDS011;11523;50.390;8.072;2022-12-29T14:49:08;4.13;;;1.20;;
22711;SDS011;11523;50.390;8.072;2022-12-29T14:51:35;2.38;;;1.13;;
22711;SDS011;11523;50.390;8.072;2022-12-29T14:54:34;7.85;;;1.60;;
22711;SDS011;11523;50.390;8.072;2022-12-29T14:56:48;4.35;;;1.40;;
22711;SDS011;11523;50.390;8.072;2022-12-29T14:59:14;5.20;;;1.40;;
22711;SDS011;11523;50.390;8.072;2022-12-29T15:01:48;6.10;;;1.70;;
22711;SDS011;11523;50.390;8.072;2022-12-29T15:04:25;3.75;;;1.35;;
22711;SDS011;11523;50.390;8.072;2022-12-29T15:06:52;6.05;;;2.28;;
22711;SDS011;11523;50.390;8.072;2022-12-29T15:09:24;4.22;;;1.80;;
22711;SDS011;11523;50.390;8.072;2022-12-29T15:12:00;7.35;;;1.60;;
22711;SDS011;11523;50.390;8.072;2022-12-29T15:14:29;6.38;;;1.55;;
22711;SDS011;11523;50.390;8.072;2022-12-29T15:16:55;8.15;;;1.80;;
22711;SDS011;11523;50.390;8.072;2022-12-29T15:19:21;6.18;;;1.73;;
22711;SDS011;11523;50.390;8.072;2022-12-29T15:21:47;4.70;;;1.67;;
22711;SDS011;11523;50.390;8.072;2022-12-29T15:24:19;6.95;;;1.77;;
22711;SDS011;11523;50.390;8.072;2022-12-29T15:26:46;4.28;;;1.20;;
22711;SDS011;11523;50.390;8.072;2022-12-29T15:34:23;4.93;;;1.30;;
22711;SDS011;11523;50.390;8.072;2022-12-29T15:36:55;6.38;;;1.67;;
22711;SDS011;11523;50.390;8.072;2022-12-29T15:39:29;4.03;;;1.77;;
22711;SDS011;11523;50.390;8.072;2022-12-29T15:41:56;4.22;;;1.75;;
22711;SDS011;11523;50.390;8.072;2022-12-29T15:44:26;4.22;;;1.40;;
22711;SDS011;11523;50.390;8.072;2022-12-29T15:46:54;4.40;;;1.50;;
22711;SDS011;11523;50.390;8.072;2022-12-29T15:49:20;5.53;;;1.85;;
22711;SDS011;11523;50.390;8.072;2022-12-29T15:51:48;7.95;;;1.83;;
22711;SDS011;11523;50.390;8.072;2022-12-29T15:54:15;3.75;;;1.52;;
22711;SDS011;11523;50.390;8.072;2022-12-29T15:56:42;5.35;;;1.55;;
22711;SDS011;11523;50.390;8.072;2022-12-29T16:01:50;5.38;;;1.50;;
22711;SDS011;11523;50.390;8.072;2022-12-29T16:04:16;6.80;;;1.95;;
22711;SDS011;11523;50.390;8.072;2022-12-29T16:06:54;7.18;;;1.90;;
22711;SDS011;11523;50.390;8.072;2022-12-29T16:12:00;6.43;;;1.83;;
22711;SDS011;11523;50.390;8.072;2022-12-29T16:14:48;5.55;;;1.73;;
22711;SDS011;11523;50.390;8.072;2022-12-29T16:17:14;4.13;;;1.73;;
22711;SDS011;11523;50.390;8.072;2022-12-29T16:19:47;4.93;;;1.63;;
22711;SDS011;11523;50.390;8.072;2022-12-29T16:22:22;4.97;;;1.70;;
22711;SDS011;11523;50.390;8.072;2022-12-29T16:24:50;4.78;;;1.83;;
22711;SDS011;11523;50.390;8.072;2022-12-29T16:27:21;5.13;;;1.75;;
22711;SDS011;11523;50.390;8.072;2022-12-29T16:29:49;6.50;;;1.80;;
22711;SDS011;11523;50.390;8.072;2022-12-29T16:32:25;4.10;;;1.80;;
22711;SDS011;11523;50.390;8.072;2022-12-29T16:34:52;5.13;;;2.00;;
22711;SDS011;11523;50.390;8.072;2022-12-29T16:37:29;6.65;;;2.03;;
22711;SDS011;11523;50.390;8.072;2022-12-29T16:39:55;6.72;;;2.00;;
22711;SDS011;11523;50.390;8.072;2022-12-29T16:42:55;4.68;;;1.92;;
22711;SDS011;11523;50.390;8.072;2022-12-29T16:47:53;7.18;;;2.33;;
22711;SDS011;11523;50.390;8.072;2022-12-29T16:50:35;6.13;;;2.45;;
22711;SDS011;11523;50.390;8.072;2022-12-29T16:53:01;4.05;;;2.00;;
22711;SDS011;11523;50.390;8.072;2022-12-29T16:55:28;7.63;;;1.90;;
22711;SDS011;11523;50.390;8.072;2022-12-29T16:57:54;5.40;;;2.00;;
22711;SDS011;11523;50.390;8.072;2022-12-29T17:00:24;6.28;;;2.05;;
22711;SDS011;11523;50.390;8.072;2022-12-29T17:02:52;5.93;;;2.08;;
22711;SDS011;11523;50.390;8.072;2022-12-29T17:05:19;7.97;;;2.22;;
22711;SDS011;11523;50.390;8.072;2022-12-29T17:07:45;8.75;;;2.60;;
22711;SDS011;11523;50.390;8.072;2022-12-29T17:10:11;4.72;;;1.83;;
22711;SDS011;11523;50.390;8.072;2022-12-29T17:12:38;8.05;;;2.40;;
22711;SDS011;11523;50.390;8.072;2022-12-29T17:15:06;11.20;;;2.25;;
22711;SDS011;11523;50.390;8.072;2022-12-29T17:17:41;9.65;;;2.65;;
22711;SDS011;11523;50.390;8.072;2022-12-29T17:20:21;5.07;;;2.10;;
22711;SDS011;11523;50.390;8.072;2022-12-29T17:22:48;6.50;;;2.20;;
22711;SDS011;11523;50.390;8.072;2022-12-29T17:25:19;8.93;;;2.38;;
22711;SDS011;11523;50.390;8.072;2022-12-29T17:27:47;8.52;;;2.45;;
22711;SDS011;11523;50.390;8.072;2022-12-29T17:30:15;7.05;;;2.33;;
22711;SDS011;11523;50.390;8.072;2022-12-29T17:32:42;7.63;;;2.30;;
22711;SDS011;11523;50.390;8.072;2022-12-29T17:35:14;9.88;;;2.53;;
22711;SDS011;11523;50.390;8.072;2022-12-29T17:37:40;7.28;;;2.40;;
22711;SDS011;11523;50.390;8.072;2022-12-29T17:40:07;5.45;;;1.73;;
22711;SDS011;11523;50.390;8.072;2022-12-29T17:42:36;5.10;;;2.08;;
22711;SDS011;11523;50.390;8.072;2022-12-29T17:45:03;6.70;;;2.00;;
22711;SDS011;11523;50.390;8.072;2022-12-29T17:47:29;8.88;;;2.35;;
22711;SDS011;11523;50.390;8.072;2022-12-29T17:49:55;10.38;;;2.50;;
22711;SDS011;11523;50.390;8.072;2022-12-29T17:52:21;6.25;;;2.10;;
22711;SDS011;11523;50.390;8.072;2022-12-29T17:54:49;6.53;;;2.00;;
22711;SDS011;11523;50.390;8.072;2022-12-29T17:57:16;8.43;;;2.10;;
22711;SDS011;11523;50.390;8.072;2022-12-29T17:59:42;5.68;;;1.58;;
22711;SDS011;11523;50.390;8.072;2022-12-29T18:02:20;6.88;;;2.00;;
22711;SDS011;11523;50.390;8.072;2022-12-29T18:04:47;8.27;;;1.80;;
22711;SDS011;11523;50.390;8.072;2022-12-29T18:07:13;6.72;;;1.88;;
22711;SDS011;11523;50.390;8.072;2022-12-29T18:09:39;6.90;;;2.00;;
22711;SDS011;11523;50.390;8.072;2022-12-29T18:12:05;8.35;;;2.10;;
22711;SDS011;11523;50.390;8.072;2022-12-29T18:14:35;8.07;;;2.15;;
22711;SDS011;11523;50.390;8.072;2022-12-29T18:17:03;9.48;;;2.13;;
22711;SDS011;11523;50.390;8.072;2022-12-29T18:19:33;11.63;;;2.20;;
22711;SDS011;11523;50.390;8.072;2022-12-29T18:21:59;6.93;;;1.90;;
22711;SDS011;11523;50.390;8.072;2022-12-29T18:24:25;8.18;;;2.55;;
22711;SDS011;11523;50.390;8.072;2022-12-29T18:26:52;8.70;;;3.50;;
22711;SDS011;11523;50.390;8.072;2022-12-29T18:29:18;15.02;;;7.38;;
22711;SDS011;11523;50.390;8.072;2022-12-29T18:31:44;10.82;;;2.85;;
22711;SDS011;11523;50.390;8.072;2022-12-29T18:34:12;9.65;;;3.50;;
22711;SDS011;11523;50.390;8.072;2022-12-29T18:36:38;8.45;;;2.85;;
22711;SDS011;11523;50.390;8.072;2022-12-29T18:39:04;9.63;;;3.08;;
22711;SDS011;11523;50.390;8.072;2022-12-29T18:41:30;7.35;;;2.65;;
22711;SDS011;11523;50.390;8.072;2022-12-29T18:43:56;8.57;;;2.80;;
22711;SDS011;11523;50.390;8.072;2022-12-29T18:46:22;7.30;;;2.47;;
22711;SDS011;11523;50.390;8.072;2022-12-29T18:48:48;7.30;;;2.75;;
22711;SDS011;11523;50.390;8.072;2022-12-29T18:51:18;8.77;;;2.13;;
22711;SDS011;11523;50.390;8.072;2022-12-29T18:53:44;7.00;;;2.60;;
22711;SDS011;11523;50.390;8.072;2022-12-29T18:56:11;10.52;;;4.60;;
22711;SDS011;11523;50.390;8.072;2022-12-29T18:58:37;11.23;;;4.22;;
22711;SDS011;11523;50.390;8.072;2022-12-29T19:01:03;11.43;;;3.78;;
22711;SDS011;11523;50.390;8.072;2022-12-29T19:03:29;10.32;;;3.22;;
22711;SDS011;11523;50.390;8.072;2022-12-29T19:05:55;11.02;;;3.80;;
22711;SDS011;11523;50.390;8.072;2022-12-29T19:08:21;8.80;;;3.22;;
22711;SDS011;11523;50.390;8.072;2022-12-29T19:10:47;12.73;;;3.97;;
22711;SDS011;11523;50.390;8.072;2022-12-29T19:13:18;9.57;;;3.00;;
22711;SDS011;11523;50.390;8.072;2022-12-29T19:15:45;9.13;;;2.58;;
22711;SDS011;11523;50.390;8.072;2022-12-29T19:18:18;13.43;;;2.65;;
22711;SDS011;11523;50.390;8.072;2022-12-29T19:20:45;9.35;;;2.70;;
22711;SDS011;11523;50.390;8.072;2022-12-29T19:23:13;10.55;;;2.67;;
22711;SDS011;11523;50.390;8.072;2022-12-29T19:25:39;12.98;;;3.40;;
22711;SDS011;11523;50.390;8.072;2022-12-29T19:28:06;18.42;;;7.65;;
22711;SDS011;11523;50.390;8.072;2022-12-29T19:30:32;16.10;;;6.18;;
22711;SDS011;11523;50.390;8.072;2022-12-29T19:32:59;14.65;;;6.72;;
22711;SDS011;11523;50.390;8.072;2022-12-29T19:35:29;15.65;;;4.80;;
22711;SDS011;11523;50.390;8.072;2022-12-29T19:37:55;11.38;;;4.40;;
22711;SDS011;11523;50.390;8.072;2022-12-29T19:40:22;7.82;;;2.53;;
22711;SDS011;11523;50.390;8.072;2022-12-29T19:42:48;8.07;;;2.78;;
22711;SDS011;11523;50.390;8.072;2022-12-29T19:45:15;8.90;;;2.97;;
22711;SDS011;11523;50.390;8.072;2022-12-29T19:47:41;12.23;;;2.63;;
22711;SDS011;11523;50.390;8.072;2022-12-29T19:50:08;12.32;;;3.42;;
22711;SDS011;11523;50.390;8.072;2022-12-29T19:52:35;8.57;;;2.60;;
22711;SDS011;11523;50.390;8.072;2022-12-29T19:55:01;7.93;;;2.65;;
22711;SDS011;11523;50.390;8.072;2022-12-29T19:57:27;9.77;;;3.28;;
22711;SDS011;11523;50.390;8.072;2022-12-29T19:59:53;9.48;;;3.58;;
22711;SDS011;11523;50.390;8.072;2022-12-29T20:02:20;7.70;;;3.20;;